createdAt,value
2022-12-18T00:00:09.172Z,-2.33
2022-12-18T00:00:44.603Z,-2.32
2022-12-18T00:01:24.940Z,-2.31
2022-12-18T00:01:59.482Z,-2.31
2022-12-18T00:02:31.075Z,-2.29
2022-12-18T00:03:02.680Z,-2.29
2022-12-18T00:03:35.061Z,-2.29
2022-12-18T00:04:09.454Z,-2.29
2022-12-18T00:04:41.135Z,-2.28
2022-12-18T00:05:12.700Z,-2.28
2022-12-18T00:05:51.732Z,-2.29
2022-12-18T00:06:25.636Z,-2.28
2022-12-18T00:06:57.451Z,-2.29
2022-12-18T00:07:29.066Z,-2.29
2022-12-18T00:08:00.686Z,-2.30
2022-12-18T00:08:33.642Z,-2.30
2022-12-18T00:09:05.518Z,-2.30
2022-12-18T00:09:40.145Z,-2.30
2022-12-18T00:10:15.356Z,-2.30
2022-12-18T00:10:47.272Z,-2.31
2022-12-18T00:11:21.194Z,-2.30
2022-12-18T00:11:52.708Z,-2.30
2022-12-18T00:12:24.288Z,-2.29
2022-12-18T00:12:55.857Z,-2.29
2022-12-18T00:13:28.316Z,-2.29
2022-12-18T00:14:00.814Z,-2.29
2022-12-18T00:14:32.329Z,-2.30
2022-12-18T00:15:04.520Z,-2.29
2022-12-18T00:15:37.828Z,-2.29
2022-12-18T00:16:21.326Z,-2.29
2022-12-18T00:16:52.971Z,-2.28
2022-12-18T00:17:24.510Z,-2.29
2022-12-18T00:17:56.051Z,-2.29
2022-12-18T00:18:27.678Z,-2.28
2022-12-18T00:19:00.335Z,-2.28
2022-12-18T00:19:31.895Z,-2.29
2022-12-18T00:20:03.730Z,-2.28
2022-12-18T00:20:39.701Z,-2.29
2022-12-18T00:21:13.472Z,-2.28
2022-12-18T00:21:45.076Z,-2.28
2022-12-18T00:22:16.644Z,-2.29
2022-12-18T00:22:48.247Z,-2.29
2022-12-18T00:23:19.700Z,-2.32
2022-12-18T00:23:52.280Z,-2.35
2022-12-18T00:24:23.814Z,-2.36
2022-12-18T00:24:55.333Z,-2.38
2022-12-18T00:25:26.912Z,-2.40
2022-12-18T00:26:07.697Z,-2.42
2022-12-18T00:26:39.912Z,-2.44
2022-12-18T00:27:11.562Z,-2.44
2022-12-18T00:27:43.073Z,-2.43
2022-12-18T00:28:14.668Z,-2.41
2022-12-18T00:28:46.931Z,-2.40
2022-12-18T00:29:18.419Z,-2.40
2022-12-18T00:29:50.151Z,-2.39
2022-12-18T00:30:21.921Z,-2.38
2022-12-18T00:31:10.856Z,-2.38
2022-12-18T00:31:44.056Z,-2.37
2022-12-18T00:32:15.676Z,-2.37
2022-12-18T00:32:47.265Z,-2.37
2022-12-18T00:33:19.269Z,-2.37
2022-12-18T00:33:53.966Z,-2.38
2022-12-18T00:34:26.804Z,-2.40
2022-12-18T00:34:58.294Z,-2.42
2022-12-18T00:35:29.859Z,-2.46
2022-12-18T00:36:11.116Z,-2.50
2022-12-18T00:36:42.907Z,-2.51
2022-12-18T00:37:20.239Z,-2.50
2022-12-18T00:37:52.029Z,-2.51
2022-12-18T00:38:23.615Z,-2.50
2022-12-18T00:38:56.685Z,-2.50
2022-12-18T00:39:28.122Z,-2.49
2022-12-18T00:39:59.724Z,-2.50
2022-12-18T00:40:31.302Z,-2.52
2022-12-18T00:41:05.857Z,-2.55
2022-12-18T00:41:55.991Z,-2.59
2022-12-18T00:42:46.060Z,-2.59
2022-12-18T00:43:17.617Z,-2.59
2022-12-18T00:43:49.160Z,-2.59
2022-12-18T00:44:21.087Z,-2.59
2022-12-18T00:44:52.642Z,-2.58
2022-12-18T00:45:29.523Z,-2.57
2022-12-18T00:46:01.146Z,-2.56
2022-12-18T00:46:33.148Z,-2.57
2022-12-18T00:47:53.682Z,-2.59
2022-12-18T00:48:25.133Z,-2.59
2022-12-18T00:48:56.648Z,-2.59
2022-12-18T00:49:28.238Z,-2.59
2022-12-18T00:49:59.726Z,-2.57
2022-12-18T00:50:31.209Z,-2.57
2022-12-18T00:51:03.300Z,-2.58
2022-12-18T00:51:34.892Z,-2.56
2022-12-18T00:52:06.411Z,-2.56
2022-12-18T00:52:38.122Z,-2.55
2022-12-18T00:53:09.687Z,-2.54
2022-12-18T00:53:42.162Z,-2.55
2022-12-18T00:54:14.187Z,-2.56
2022-12-18T00:54:45.630Z,-2.56
2022-12-18T00:55:17.384Z,-2.57
2022-12-18T00:55:48.908Z,-2.59
2022-12-18T00:56:24.342Z,-2.60
2022-12-18T00:56:56.223Z,-2.62
2022-12-18T00:57:27.753Z,-2.63
2022-12-18T00:57:59.264Z,-2.63
2022-12-18T00:58:30.772Z,-2.61
2022-12-18T00:59:02.288Z,-2.61
2022-12-18T00:59:33.854Z,-2.61
2022-12-18T01:00:06.884Z,-2.63
2022-12-18T01:00:39.057Z,-2.62
2022-12-18T01:01:10.633Z,-2.62
2022-12-18T01:01:42.382Z,-2.62
2022-12-18T01:02:14.294Z,-2.60
2022-12-18T01:02:46.048Z,-2.60
2022-12-18T01:03:17.716Z,-2.59
2022-12-18T01:03:49.690Z,-2.58
2022-12-18T01:04:21.289Z,-2.57
2022-12-18T01:04:52.803Z,-2.56
2022-12-18T01:05:24.411Z,-2.55
2022-12-18T01:05:55.846Z,-2.55
2022-12-18T01:06:27.564Z,-2.56
2022-12-18T01:06:59.029Z,-2.56
2022-12-18T01:07:30.464Z,-2.57
2022-12-18T01:08:01.915Z,-2.56
2022-12-18T01:08:33.381Z,-2.57
2022-12-18T01:09:05.135Z,-2.58
2022-12-18T01:09:36.644Z,-2.60
2022-12-18T01:10:10.417Z,-2.63
2022-12-18T01:10:42.603Z,-2.63
2022-12-18T01:11:18.022Z,-2.65
2022-12-18T01:11:49.533Z,-2.67
2022-12-18T01:12:21.088Z,-2.68
2022-12-18T01:12:52.753Z,-2.69
2022-12-18T01:13:24.274Z,-2.68
2022-12-18T01:13:56.046Z,-2.67
2022-12-18T01:14:27.613Z,-2.66
2022-12-18T01:14:59.129Z,-2.64
2022-12-18T01:15:30.718Z,-2.64
2022-12-18T01:16:02.617Z,-2.67
2022-12-18T01:16:34.092Z,-2.68
2022-12-18T01:17:05.695Z,-2.70
2022-12-18T01:17:37.291Z,-2.73
2022-12-18T01:18:08.831Z,-2.75
2022-12-18T01:18:40.641Z,-2.75
2022-12-18T01:19:12.595Z,-2.73
2022-12-18T01:19:44.090Z,-2.73
2022-12-18T01:20:15.954Z,-2.73
2022-12-18T01:20:47.528Z,-2.73
2022-12-18T01:21:19.105Z,-2.72
2022-12-18T01:21:50.726Z,-2.71
2022-12-18T01:22:22.218Z,-2.71
2022-12-18T01:22:53.812Z,-2.70
2022-12-18T01:23:25.310Z,-2.69
2022-12-18T01:23:58.116Z,-2.67
2022-12-18T01:24:29.779Z,-2.67
2022-12-18T01:25:02.049Z,-2.66
2022-12-18T01:25:33.600Z,-2.66
2022-12-18T01:26:08.532Z,-2.64
2022-12-18T01:26:40.134Z,-2.64
2022-12-18T01:27:11.829Z,-2.63
2022-12-18T01:27:43.357Z,-2.63
2022-12-18T01:28:14.812Z,-2.61
2022-12-18T01:28:46.280Z,-2.62
2022-12-18T01:29:17.997Z,-2.61
2022-12-18T01:29:50.294Z,-2.61
2022-12-18T01:30:21.892Z,-2.61
2022-12-18T01:30:53.359Z,-2.60
2022-12-18T01:31:27.507Z,-2.63
2022-12-18T01:31:59.215Z,-2.61
2022-12-18T01:32:31.980Z,-2.62
2022-12-18T01:33:05.734Z,-2.60
2022-12-18T01:33:37.876Z,-2.60
2022-12-18T01:34:10.040Z,-2.59
2022-12-18T01:34:41.782Z,-2.59
2022-12-18T01:35:13.216Z,-2.59
2022-12-18T01:35:44.788Z,-2.60
2022-12-18T01:36:36.633Z,-2.58
2022-12-18T01:37:08.259Z,-2.59
2022-12-18T01:37:39.791Z,-2.59
2022-12-18T01:38:11.351Z,-2.60
2022-12-18T01:38:43.382Z,-2.60
2022-12-18T01:39:16.163Z,-2.62
2022-12-18T01:39:47.649Z,-2.62
2022-12-18T01:40:19.114Z,-2.61
2022-12-18T01:40:50.603Z,-2.62
2022-12-18T01:41:27.259Z,-2.63
2022-12-18T01:42:05.640Z,-2.66
2022-12-18T01:42:37.404Z,-2.67
2022-12-18T01:43:59.395Z,-2.67
2022-12-18T01:45:01.624Z,-2.66
2022-12-18T01:45:33.126Z,-2.66
2022-12-18T01:46:04.774Z,-2.67
2022-12-18T01:46:36.298Z,-2.67
2022-12-18T01:47:08.029Z,-2.67
2022-12-18T01:47:46.453Z,-2.67
2022-12-18T01:48:18.020Z,-2.66
2022-12-18T01:48:52.413Z,-2.66
2022-12-18T01:49:23.871Z,-2.65
2022-12-18T01:49:56.785Z,-2.66
2022-12-18T01:50:36.904Z,-2.67
2022-12-18T01:51:11.218Z,-2.66
2022-12-18T01:51:45.098Z,-2.66
2022-12-18T01:52:18.772Z,-2.67
2022-12-18T01:52:56.388Z,-2.69
2022-12-18T01:53:27.962Z,-2.70
2022-12-18T01:54:19.101Z,-2.71
2022-12-18T01:54:53.181Z,-2.72
2022-12-18T01:55:27.429Z,-2.72
2022-12-18T01:56:00.148Z,-2.73
2022-12-18T01:56:31.837Z,-2.72
2022-12-18T01:57:03.452Z,-2.72
2022-12-18T01:57:35.941Z,-2.73
2022-12-18T01:58:07.728Z,-2.73
2022-12-18T01:58:48.215Z,-2.74
2022-12-18T01:59:19.971Z,-2.76
2022-12-18T01:59:54.787Z,-2.75
2022-12-18T02:00:27.553Z,-2.74
2022-12-18T02:00:59.110Z,-2.76
2022-12-18T02:01:32.424Z,-2.76
2022-12-18T02:02:04.401Z,-2.76
2022-12-18T02:02:36.451Z,-2.77
2022-12-18T02:03:08.052Z,-2.76
2022-12-18T02:03:43.796Z,-2.78
2022-12-18T02:04:28.016Z,-2.78
2022-12-18T02:04:59.639Z,-2.78
2022-12-18T02:05:56.536Z,-2.79
2022-12-18T02:06:36.529Z,-2.80
2022-12-18T02:07:45.434Z,-2.80
2022-12-18T02:08:44.540Z,-2.81
2022-12-18T02:09:23.837Z,-2.83
2022-12-18T02:10:04.904Z,-2.85
2022-12-18T02:10:57.172Z,-2.84
2022-12-18T02:12:04.834Z,-2.85
2022-12-18T02:12:46.260Z,-2.86
2022-12-18T02:13:41.858Z,-2.87
2022-12-18T02:14:39.927Z,-2.88
2022-12-18T02:15:25.246Z,-2.88
2022-12-18T02:16:16.968Z,-2.91
2022-12-18T02:17:22.069Z,-2.91
2022-12-18T02:17:59.502Z,-2.92
2022-12-18T02:18:39.322Z,-2.93
2022-12-18T02:19:30.154Z,-2.94
2022-12-18T02:20:33.070Z,-2.93
2022-12-18T02:21:19.580Z,-2.94
2022-12-18T02:22:03.498Z,-2.95
2022-12-18T02:22:54.841Z,-2.98
2022-12-18T02:23:42.432Z,-2.98
2022-12-18T02:24:30.757Z,-2.98
2022-12-18T02:25:13.909Z,-2.99
2022-12-18T02:26:03.161Z,-2.99
2022-12-18T02:26:41.262Z,-3.01
2022-12-18T02:27:14.154Z,-3.01
2022-12-18T02:27:49.686Z,-3.01
2022-12-18T02:28:24.852Z,-3.02
2022-12-18T02:28:59.434Z,-3.02
2022-12-18T02:29:50.535Z,-3.03
2022-12-18T02:30:24.736Z,-3.03
2022-12-18T02:31:00.581Z,-3.04
2022-12-18T02:31:39.954Z,-3.05
2022-12-18T02:32:17.837Z,-3.05
2022-12-18T02:32:53.174Z,-3.06
2022-12-18T02:33:26.678Z,-3.06
2022-12-18T02:34:03.203Z,-3.07
2022-12-18T02:34:38.882Z,-3.09
2022-12-18T02:35:15.078Z,-3.09
2022-12-18T02:35:47.816Z,-3.08
2022-12-18T02:36:21.114Z,-3.09
2022-12-18T02:36:55.233Z,-3.10
2022-12-18T02:37:28.954Z,-3.11
2022-12-18T02:38:01.322Z,-3.11
2022-12-18T02:38:34.904Z,-3.11
2022-12-18T02:39:09.946Z,-3.13
2022-12-18T02:39:44.045Z,-3.13
2022-12-18T02:40:18.122Z,-3.14
2022-12-18T02:40:51.928Z,-3.14
2022-12-18T02:41:24.001Z,-3.14
2022-12-18T02:41:55.736Z,-3.15
2022-12-18T02:42:29.044Z,-3.15
2022-12-18T02:43:15.281Z,-3.15
2022-12-18T02:43:54.797Z,-3.17
2022-12-18T02:44:26.481Z,-3.16
2022-12-18T02:44:58.030Z,-3.17
2022-12-18T02:45:29.588Z,-3.18
2022-12-18T02:46:22.030Z,-3.19
2022-12-18T02:46:55.030Z,-3.18
2022-12-18T02:47:31.914Z,-3.20
2022-12-18T02:48:03.725Z,-3.20
2022-12-18T02:48:37.197Z,-3.20
2022-12-18T02:49:11.330Z,-3.21
2022-12-18T02:50:05.152Z,-3.22
2022-12-18T02:50:45.890Z,-3.22
2022-12-18T02:51:36.180Z,-3.23
2022-12-18T02:52:32.541Z,-3.25
2022-12-18T02:53:23.057Z,-3.26
2022-12-18T02:54:01.915Z,-3.27
2022-12-18T02:54:52.797Z,-3.27
2022-12-18T02:55:49.973Z,-3.28
2022-12-18T02:56:30.095Z,-3.29
2022-12-18T02:57:13.502Z,-3.30
2022-12-18T02:57:55.002Z,-3.30
2022-12-18T02:58:41.614Z,-3.30
2022-12-18T02:59:32.736Z,-3.32
2022-12-18T03:00:13.287Z,-3.34
2022-12-18T03:00:57.678Z,-3.34
2022-12-18T03:01:41.449Z,-3.34
2022-12-18T03:02:27.346Z,-3.35
2022-12-18T03:03:07.966Z,-3.36
2022-12-18T03:03:51.722Z,-3.36
2022-12-18T03:04:44.700Z,-3.37
2022-12-18T03:06:20.862Z,-3.39
2022-12-18T03:06:56.985Z,-3.40
2022-12-18T03:07:41.097Z,-3.40
2022-12-18T03:08:28.837Z,-3.42
2022-12-18T03:09:23.018Z,-3.43
2022-12-18T03:09:56.388Z,-3.43
2022-12-18T03:10:35.201Z,-3.45
2022-12-18T03:11:11.788Z,-3.45
2022-12-18T03:12:08.069Z,-3.45
2022-12-18T03:12:47.708Z,-3.47
2022-12-18T03:13:27.866Z,-3.47
2022-12-18T03:14:00.992Z,-3.49
2022-12-18T03:14:37.827Z,-3.49
2022-12-18T03:15:18.344Z,-3.49
2022-12-18T03:15:54.436Z,-3.51
2022-12-18T03:16:29.795Z,-3.52
2022-12-18T03:17:10.397Z,-3.51
2022-12-18T03:17:47.436Z,-3.53
2022-12-18T03:18:39.985Z,-3.53
2022-12-18T03:19:17.867Z,-3.54
2022-12-18T03:19:50.922Z,-3.54
2022-12-18T03:20:24.718Z,-3.56
2022-12-18T03:21:01.367Z,-3.56
2022-12-18T03:21:43.154Z,-3.56
2022-12-18T03:22:17.197Z,-3.56
2022-12-18T03:22:52.921Z,-3.58
2022-12-18T03:23:30.091Z,-3.58
2022-12-18T03:24:04.381Z,-3.59
2022-12-18T03:24:40.000Z,-3.59
2022-12-18T03:25:15.127Z,-3.60
2022-12-18T03:25:48.643Z,-3.61
2022-12-18T03:26:26.293Z,-3.61
2022-12-18T03:27:04.107Z,-3.62
2022-12-18T03:27:40.054Z,-3.62
2022-12-18T03:28:16.705Z,-3.63
2022-12-18T03:28:55.520Z,-3.64
2022-12-18T03:29:34.887Z,-3.63
2022-12-18T03:30:11.345Z,-3.64
2022-12-18T03:30:47.169Z,-3.64
2022-12-18T03:31:23.062Z,-3.66
2022-12-18T03:32:08.616Z,-3.66
2022-12-18T03:32:46.003Z,-3.67
2022-12-18T03:33:49.540Z,-3.67
2022-12-18T03:34:27.993Z,-3.67
2022-12-18T03:35:04.109Z,-3.69
2022-12-18T03:35:40.197Z,-3.70
2022-12-18T03:36:12.490Z,-3.69
2022-12-18T03:36:44.409Z,-3.71
2022-12-18T03:37:16.238Z,-3.70
2022-12-18T03:37:47.881Z,-3.71
2022-12-18T03:38:19.935Z,-3.70
2022-12-18T03:38:52.080Z,-3.71
2022-12-18T03:39:23.778Z,-3.71
2022-12-18T03:39:55.305Z,-3.71
2022-12-18T03:40:44.279Z,-3.71
2022-12-18T03:41:53.969Z,-3.72
2022-12-18T03:42:51.207Z,-3.73
2022-12-18T03:43:35.226Z,-3.75
2022-12-18T03:44:15.977Z,-3.75
2022-12-18T03:45:01.480Z,-3.76
2022-12-18T03:45:38.410Z,-3.76
2022-12-18T03:46:17.532Z,-3.77
2022-12-18T03:47:10.684Z,-3.78
2022-12-18T03:47:59.729Z,-3.78
2022-12-18T03:48:38.956Z,-3.79
2022-12-18T03:49:26.657Z,-3.79
2022-12-18T03:50:16.701Z,-3.80
2022-12-18T03:50:51.541Z,-3.80
2022-12-18T03:51:25.685Z,-3.80
2022-12-18T03:52:12.513Z,-3.82
2022-12-18T03:52:53.023Z,-3.82
2022-12-18T03:53:45.792Z,-3.81
2022-12-18T03:54:18.447Z,-3.82
2022-12-18T03:54:50.876Z,-3.83
2022-12-18T03:55:24.092Z,-3.83
2022-12-18T03:55:57.964Z,-3.84
2022-12-18T03:56:38.274Z,-3.83
2022-12-18T03:57:20.400Z,-3.84
2022-12-18T03:57:53.559Z,-3.85
2022-12-18T03:58:33.909Z,-3.85
2022-12-18T03:59:06.867Z,-3.86
2022-12-18T03:59:39.428Z,-3.85
2022-12-18T04:00:14.405Z,-3.87
2022-12-18T04:00:48.847Z,-3.85
2022-12-18T04:01:26.866Z,-3.86
2022-12-18T04:02:00.797Z,-3.87
2022-12-18T04:02:35.435Z,-3.86
2022-12-18T04:03:10.039Z,-3.87
2022-12-18T04:03:45.081Z,-3.86
2022-12-18T04:04:19.694Z,-3.88
2022-12-18T04:05:44.992Z,-3.88
2022-12-18T04:06:17.793Z,-3.88
2022-12-18T04:06:51.145Z,-3.90
2022-12-18T04:07:23.908Z,-3.90
2022-12-18T04:07:57.222Z,-3.89
2022-12-18T04:08:30.049Z,-3.90
2022-12-18T04:09:01.822Z,-3.91
2022-12-18T04:09:35.171Z,-3.89
2022-12-18T04:10:10.292Z,-3.91
2022-12-18T04:10:41.750Z,-3.91
2022-12-18T04:11:13.293Z,-3.92
2022-12-18T04:11:45.370Z,-3.91
2022-12-18T04:12:16.986Z,-3.92
2022-12-18T04:12:48.934Z,-3.92
2022-12-18T04:13:30.301Z,-3.93
2022-12-18T04:14:06.976Z,-3.93
2022-12-18T04:14:38.867Z,-3.95
2022-12-18T04:15:11.607Z,-3.94
2022-12-18T04:15:43.199Z,-3.93
2022-12-18T04:16:14.805Z,-3.95
2022-12-18T04:16:46.325Z,-3.94
2022-12-18T04:17:17.902Z,-3.95
2022-12-18T04:17:50.657Z,-3.95
2022-12-18T04:18:22.185Z,-3.96
2022-12-18T04:18:54.644Z,-3.96
2022-12-18T04:19:26.138Z,-3.97
2022-12-18T04:19:57.721Z,-3.98
2022-12-18T04:20:29.310Z,-3.99
2022-12-18T04:21:00.833Z,-4.00
2022-12-18T04:21:32.319Z,-4.00
2022-12-18T04:22:03.842Z,-4.00
2022-12-18T04:22:36.378Z,-3.99
2022-12-18T04:23:07.852Z,-3.99
2022-12-18T04:23:39.724Z,-4.00
2022-12-18T04:24:11.652Z,-4.00
2022-12-18T04:24:43.261Z,-4.00
2022-12-18T04:25:15.458Z,-4.00
2022-12-18T04:25:48.568Z,-4.00
2022-12-18T04:26:20.059Z,-4.00
2022-12-18T04:26:51.510Z,-4.00
2022-12-18T04:28:12.289Z,-4.01
2022-12-18T04:28:43.830Z,-4.00
2022-12-18T04:29:15.460Z,-4.01
2022-12-18T04:29:47.045Z,-4.02
2022-12-18T04:30:18.563Z,-4.02
2022-12-18T04:30:50.554Z,-4.02
2022-12-18T04:31:22.656Z,-4.03
2022-12-18T04:31:54.167Z,-4.02
2022-12-18T04:32:25.844Z,-4.02
2022-12-18T04:32:57.339Z,-4.02
2022-12-18T04:33:28.837Z,-4.03
2022-12-18T04:34:00.269Z,-4.03
2022-12-18T04:34:31.773Z,-4.04
2022-12-18T04:35:05.190Z,-4.02
2022-12-18T04:35:36.777Z,-4.03
2022-12-18T04:36:08.473Z,-4.03
2022-12-18T04:36:39.880Z,-4.04
2022-12-18T04:37:12.248Z,-4.03
2022-12-18T04:37:43.691Z,-4.04
2022-12-18T04:38:15.391Z,-4.04
2022-12-18T04:38:46.893Z,-4.04
2022-12-18T04:39:18.427Z,-4.04
2022-12-18T04:39:49.980Z,-4.05
2022-12-18T04:40:21.485Z,-4.05
2022-12-18T04:40:53.016Z,-4.05
2022-12-18T04:41:24.570Z,-4.05
2022-12-18T04:41:56.132Z,-4.06
2022-12-18T04:42:27.973Z,-4.06
2022-12-18T04:42:59.491Z,-4.06
2022-12-18T04:43:31.073Z,-4.06
2022-12-18T04:44:02.559Z,-4.07
2022-12-18T04:44:34.023Z,-4.08
2022-12-18T04:45:06.177Z,-4.07
2022-12-18T04:45:37.663Z,-4.06
2022-12-18T04:46:09.760Z,-4.06
2022-12-18T04:46:41.517Z,-4.07
2022-12-18T04:47:13.018Z,-4.08
2022-12-18T04:47:44.699Z,-4.08
2022-12-18T04:48:17.020Z,-4.09
2022-12-18T04:48:48.463Z,-4.09
2022-12-18T04:49:20.101Z,-4.10
2022-12-18T04:49:51.583Z,-4.11
2022-12-18T04:50:23.152Z,-4.10
2022-12-18T04:50:54.631Z,-4.11
2022-12-18T04:51:26.951Z,-4.10
2022-12-18T04:51:58.600Z,-4.10
2022-12-18T04:52:30.100Z,-4.10
2022-12-18T04:53:01.860Z,-4.10
2022-12-18T04:53:34.088Z,-4.11
2022-12-18T04:54:05.693Z,-4.10
2022-12-18T04:54:37.187Z,-4.11
2022-12-18T04:55:08.885Z,-4.11
2022-12-18T04:55:40.381Z,-4.12
2022-12-18T04:56:14.421Z,-4.12
2022-12-18T04:56:45.868Z,-4.12
2022-12-18T04:57:19.013Z,-4.13
2022-12-18T04:57:50.522Z,-4.13
2022-12-18T04:58:21.976Z,-4.13
2022-12-18T04:58:53.477Z,-4.13
2022-12-18T04:59:25.010Z,-4.14
2022-12-18T04:59:56.527Z,-4.15
2022-12-18T05:00:28.060Z,-4.15
2022-12-18T05:00:59.958Z,-4.15
2022-12-18T05:01:34.860Z,-4.17
2022-12-18T05:02:07.003Z,-4.16
2022-12-18T05:02:38.639Z,-4.17
2022-12-18T05:03:10.221Z,-4.17
2022-12-18T05:03:42.283Z,-4.15
2022-12-18T05:04:14.037Z,-4.17
2022-12-18T05:04:45.472Z,-4.17
2022-12-18T05:05:17.111Z,-4.16
2022-12-18T05:05:52.265Z,-4.16
2022-12-18T05:06:23.711Z,-4.18
2022-12-18T05:06:55.264Z,-4.17
2022-12-18T05:07:26.699Z,-4.18
2022-12-18T05:07:58.207Z,-4.18
2022-12-18T05:08:29.721Z,-4.18
2022-12-18T05:09:01.233Z,-4.18
2022-12-18T05:09:32.736Z,-4.18
2022-12-18T05:10:08.134Z,-4.19
2022-12-18T05:10:44.725Z,-4.19
2022-12-18T05:11:19.642Z,-4.19
2022-12-18T05:11:51.207Z,-4.19
2022-12-18T05:12:22.828Z,-4.19
2022-12-18T05:13:01.291Z,-4.20
2022-12-18T05:13:33.889Z,-4.20
2022-12-18T05:14:05.348Z,-4.19
2022-12-18T05:14:36.884Z,-4.21
2022-12-18T05:15:08.809Z,-4.20
2022-12-18T05:15:40.305Z,-4.21
2022-12-18T05:16:12.840Z,-4.20
2022-12-18T05:16:44.397Z,-4.21
2022-12-18T05:17:17.321Z,-4.21
2022-12-18T05:17:48.773Z,-4.22
2022-12-18T05:18:20.349Z,-4.21
2022-12-18T05:18:51.939Z,-4.23
2022-12-18T05:19:23.491Z,-4.23
2022-12-18T05:19:55.002Z,-4.23
2022-12-18T05:21:16.354Z,-4.23
2022-12-18T05:21:47.884Z,-4.23
2022-12-18T05:22:19.408Z,-4.24
2022-12-18T05:22:51.883Z,-4.25
2022-12-18T05:23:24.980Z,-4.24
2022-12-18T05:23:56.381Z,-4.25
2022-12-18T05:24:28.036Z,-4.24
2022-12-18T05:24:59.469Z,-4.25
2022-12-18T05:25:30.975Z,-4.25
2022-12-18T05:26:05.575Z,-4.26
2022-12-18T05:26:37.044Z,-4.24
2022-12-18T05:27:08.599Z,-4.26
2022-12-18T05:27:40.140Z,-4.26
2022-12-18T05:28:11.775Z,-4.28
2022-12-18T05:28:43.271Z,-4.26
2022-12-18T05:29:14.844Z,-4.27
2022-12-18T05:29:46.411Z,-4.27
2022-12-18T05:30:18.030Z,-4.28
2022-12-18T05:30:54.285Z,-4.28
2022-12-18T05:31:25.823Z,-4.28
2022-12-18T05:31:57.447Z,-4.29
2022-12-18T05:32:28.910Z,-4.28
2022-12-18T05:33:00.383Z,-4.28
2022-12-18T05:33:34.231Z,-4.29
2022-12-18T05:34:06.411Z,-4.30
2022-12-18T05:34:38.346Z,-4.30
2022-12-18T05:35:11.859Z,-4.30
2022-12-18T05:35:43.402Z,-4.30
2022-12-18T05:36:14.940Z,-4.31
2022-12-18T05:36:47.765Z,-4.30
2022-12-18T05:37:19.321Z,-4.31
2022-12-18T05:37:50.761Z,-4.30
2022-12-18T05:38:23.669Z,-4.31
2022-12-18T05:38:55.215Z,-4.31
2022-12-18T05:39:26.701Z,-4.31
2022-12-18T05:39:58.143Z,-4.32
2022-12-18T05:40:29.622Z,-4.32
2022-12-18T05:41:02.753Z,-4.32
2022-12-18T05:41:34.414Z,-4.33
2022-12-18T05:42:05.962Z,-4.34
2022-12-18T05:42:37.592Z,-4.34
2022-12-18T05:43:09.204Z,-4.34
2022-12-18T05:43:41.533Z,-4.35
2022-12-18T05:44:13.485Z,-4.35
2022-12-18T05:44:45.418Z,-4.36
2022-12-18T05:45:17.020Z,-4.36
2022-12-18T05:45:51.496Z,-4.37
2022-12-18T05:46:23.081Z,-4.37
2022-12-18T05:46:54.818Z,-4.37
2022-12-18T05:47:27.828Z,-4.36
2022-12-18T05:47:59.329Z,-4.37
2022-12-18T05:48:30.869Z,-4.37
2022-12-18T05:49:02.474Z,-4.37
2022-12-18T05:49:33.942Z,-4.38
2022-12-18T05:50:06.125Z,-4.40
2022-12-18T05:50:38.342Z,-4.39
2022-12-18T05:51:13.877Z,-4.39
2022-12-18T05:51:45.689Z,-4.39
2022-12-18T05:52:17.266Z,-4.40
2022-12-18T05:52:48.721Z,-4.40
2022-12-18T05:53:21.446Z,-4.41
2022-12-18T05:53:53.010Z,-4.41
2022-12-18T05:54:24.513Z,-4.41
2022-12-18T05:54:56.033Z,-4.42
2022-12-18T05:55:27.530Z,-4.41
2022-12-18T05:56:03.005Z,-4.41
2022-12-18T05:56:34.474Z,-4.42
2022-12-18T05:57:05.968Z,-4.42
2022-12-18T05:57:37.550Z,-4.43
2022-12-18T05:58:10.833Z,-4.44
2022-12-18T05:58:42.910Z,-4.45
2022-12-18T05:59:14.426Z,-4.43
2022-12-18T05:59:45.970Z,-4.44
2022-12-18T06:00:20.768Z,-4.44
2022-12-18T06:00:52.338Z,-4.46
2022-12-18T06:01:27.387Z,-4.46
2022-12-18T06:01:59.124Z,-4.46
2022-12-18T06:02:30.692Z,-4.46
2022-12-18T06:03:02.570Z,-4.47
2022-12-18T06:03:34.343Z,-4.47
2022-12-18T06:04:05.904Z,-4.47
2022-12-18T06:04:38.288Z,-4.48
2022-12-18T06:05:10.048Z,-4.48
2022-12-18T06:05:46.065Z,-4.49
2022-12-18T06:07:08.350Z,-4.49
2022-12-18T06:07:39.750Z,-4.49
2022-12-18T06:08:12.603Z,-4.51
2022-12-18T06:08:46.773Z,-4.51
2022-12-18T06:09:18.447Z,-4.50
2022-12-18T06:09:49.922Z,-4.52
2022-12-18T06:10:21.404Z,-4.50
2022-12-18T06:10:53.592Z,-4.53
2022-12-18T06:11:27.356Z,-4.52
2022-12-18T06:11:58.922Z,-4.53
2022-12-18T06:12:30.437Z,-4.53
2022-12-18T06:13:02.371Z,-4.53
2022-12-18T06:13:33.923Z,-4.54
2022-12-18T06:14:07.167Z,-4.53
2022-12-18T06:14:38.895Z,-4.54
2022-12-18T06:15:10.444Z,-4.54
2022-12-18T06:15:41.927Z,-4.55
2022-12-18T06:16:13.486Z,-4.55
2022-12-18T06:16:45.176Z,-4.56
2022-12-18T06:17:16.608Z,-4.56
2022-12-18T06:17:48.088Z,-4.56
2022-12-18T06:18:19.599Z,-4.56
2022-12-18T06:18:51.049Z,-4.57
2022-12-18T06:19:22.583Z,-4.57
2022-12-18T06:19:54.116Z,-4.57
2022-12-18T06:20:30.419Z,-4.60
2022-12-18T06:21:04.842Z,-4.59
2022-12-18T06:21:36.244Z,-4.59
2022-12-18T06:22:07.922Z,-4.59
2022-12-18T06:22:39.481Z,-4.59
2022-12-18T06:23:10.901Z,-4.59
2022-12-18T06:23:43.206Z,-4.60
2022-12-18T06:24:14.856Z,-4.61
2022-12-18T06:24:46.321Z,-4.61
2022-12-18T06:25:17.845Z,-4.61
2022-12-18T06:25:49.491Z,-4.62
2022-12-18T06:26:26.153Z,-4.63
2022-12-18T06:26:59.371Z,-4.61
2022-12-18T06:27:30.871Z,-4.63
2022-12-18T06:28:02.488Z,-4.62
2022-12-18T06:28:34.201Z,-4.63
2022-12-18T06:29:06.634Z,-4.64
2022-12-18T06:29:38.215Z,-4.63
2022-12-18T06:30:10.516Z,-4.65
2022-12-18T06:30:45.432Z,-4.66
2022-12-18T06:31:17.111Z,-4.66
2022-12-18T06:31:48.747Z,-4.66
2022-12-18T06:32:20.308Z,-4.66
2022-12-18T06:32:56.645Z,-4.66
2022-12-18T06:33:29.729Z,-4.67
2022-12-18T06:34:04.169Z,-4.67
2022-12-18T06:34:44.479Z,-4.67
2022-12-18T06:35:21.230Z,-4.69
2022-12-18T06:35:57.831Z,-4.68
2022-12-18T06:36:32.665Z,-4.69
2022-12-18T06:37:07.454Z,-4.68
2022-12-18T06:37:39.170Z,-4.69
2022-12-18T06:38:12.078Z,-4.70
2022-12-18T06:38:44.883Z,-4.69
2022-12-18T06:39:16.381Z,-4.71
2022-12-18T06:39:48.206Z,-4.72
2022-12-18T06:40:19.910Z,-4.72
2022-12-18T06:40:51.404Z,-4.72
2022-12-18T06:41:23.107Z,-4.73
2022-12-18T06:41:54.554Z,-4.73
2022-12-18T06:42:26.290Z,-4.73
2022-12-18T06:42:58.446Z,-4.74
2022-12-18T06:43:32.039Z,-4.74
2022-12-18T06:44:04.082Z,-4.74
2022-12-18T06:44:35.474Z,-4.75
2022-12-18T06:45:07.443Z,-4.75
2022-12-18T06:45:38.933Z,-4.76
2022-12-18T06:46:11.257Z,-4.77
2022-12-18T06:46:42.703Z,-4.77
2022-12-18T06:47:14.569Z,-4.77
2022-12-18T06:47:46.171Z,-4.78
2022-12-18T06:48:17.673Z,-4.78
2022-12-18T06:48:50.817Z,-4.79
2022-12-18T06:49:26.149Z,-4.79
2022-12-18T06:50:00.272Z,-4.79
2022-12-18T06:50:31.817Z,-4.80
2022-12-18T06:51:04.022Z,-4.80
2022-12-18T06:51:35.584Z,-4.81
2022-12-18T06:52:07.293Z,-4.80
2022-12-18T06:52:39.939Z,-4.80
2022-12-18T06:53:11.517Z,-4.80
2022-12-18T06:53:43.345Z,-4.80
2022-12-18T06:54:15.112Z,-4.81
2022-12-18T06:54:46.593Z,-4.81
2022-12-18T06:55:18.288Z,-4.82
2022-12-18T06:55:49.911Z,-4.83
2022-12-18T06:56:21.516Z,-4.82
2022-12-18T06:56:53.073Z,-4.84
2022-12-18T06:57:24.573Z,-4.83
2022-12-18T06:57:56.138Z,-4.84
2022-12-18T06:58:28.635Z,-4.84
2022-12-18T06:59:00.319Z,-4.84
2022-12-18T06:59:31.748Z,-4.83
2022-12-18T07:00:06.382Z,-4.85
2022-12-18T07:00:38.023Z,-4.85
2022-12-18T07:01:12.114Z,-4.87
2022-12-18T07:01:43.715Z,-4.87
2022-12-18T07:02:15.509Z,-4.88
2022-12-18T07:02:47.250Z,-4.87
2022-12-18T07:03:18.825Z,-4.89
2022-12-18T07:03:56.773Z,-4.89
2022-12-18T07:04:30.229Z,-4.90
2022-12-18T07:05:06.194Z,-4.90
2022-12-18T07:05:42.115Z,-4.91
2022-12-18T07:06:21.101Z,-4.90
2022-12-18T07:06:52.618Z,-4.91
2022-12-18T07:07:24.170Z,-4.91
2022-12-18T07:07:55.695Z,-4.92
2022-12-18T07:08:27.181Z,-4.92
2022-12-18T07:08:58.943Z,-4.93
2022-12-18T07:09:30.453Z,-4.93
2022-12-18T07:10:01.930Z,-4.92
2022-12-18T07:10:33.463Z,-4.94
2022-12-18T07:11:05.440Z,-4.93
2022-12-18T07:11:36.985Z,-4.93
2022-12-18T07:12:09.112Z,-4.95
2022-12-18T07:12:42.467Z,-4.93
2022-12-18T07:13:13.943Z,-4.95
2022-12-18T07:13:46.641Z,-4.96
2022-12-18T07:14:18.138Z,-4.94
2022-12-18T07:14:49.597Z,-4.96
2022-12-18T07:15:21.114Z,-4.95
2022-12-18T07:15:52.583Z,-4.96
2022-12-18T07:16:25.669Z,-4.95
2022-12-18T07:16:57.555Z,-4.96
2022-12-18T07:17:30.439Z,-4.97
2022-12-18T07:18:02.041Z,-4.97
2022-12-18T07:18:33.532Z,-4.97
2022-12-18T07:19:04.983Z,-4.98
2022-12-18T07:19:36.524Z,-4.97
2022-12-18T07:20:08.749Z,-4.97
2022-12-18T07:20:40.298Z,-4.99
2022-12-18T07:21:17.102Z,-4.99
2022-12-18T07:21:48.523Z,-4.99
2022-12-18T07:22:20.041Z,-4.99
2022-12-18T07:22:56.100Z,-4.99
2022-12-18T07:23:27.852Z,-5.00
2022-12-18T07:23:59.405Z,-5.01
2022-12-18T07:24:30.941Z,-5.01
2022-12-18T07:25:02.433Z,-5.01
2022-12-18T07:25:37.918Z,-5.02
2022-12-18T07:26:12.291Z,-5.01
2022-12-18T07:26:46.759Z,-5.02
2022-12-18T07:27:18.211Z,-5.02
2022-12-18T07:27:49.717Z,-5.02
2022-12-18T07:28:21.713Z,-5.02
2022-12-18T07:28:58.707Z,-5.02
2022-12-18T07:29:30.858Z,-5.02